createdAt,value
2022-10-14T00:00:32.926Z,23.60
2022-10-14T00:01:54.790Z,24.80
2022-10-14T00:02:57.495Z,23.30
2022-10-14T00:03:59.849Z,26.80
2022-10-14T00:05:02.584Z,28.20
2022-10-14T00:06:09.782Z,26.50
2022-10-14T00:07:12.021Z,24.90
2022-10-14T00:08:14.144Z,24.60
2022-10-14T00:09:15.974Z,24.40
2022-10-14T00:10:18.090Z,24.60
2022-10-14T00:11:25.929Z,23.70
2022-10-14T00:12:29.018Z,22.50
2022-10-14T00:13:30.820Z,24.50
2022-10-14T00:14:32.527Z,24.80
2022-10-14T00:15:41.700Z,25.60
2022-10-14T00:16:47.149Z,24.30
2022-10-14T00:17:49.738Z,23.70
2022-10-14T00:18:51.790Z,24.50
2022-10-14T00:19:53.847Z,23.60
2022-10-14T00:20:57.676Z,24.10
2022-10-14T00:21:59.478Z,22.50
2022-10-14T00:23:02.056Z,24.60
2022-10-14T00:24:04.215Z,24.40
2022-10-14T00:25:06.330Z,23.60
2022-10-14T00:26:21.758Z,24.50
2022-10-14T00:27:23.899Z,26.50
2022-10-14T00:28:26.067Z,21.70
2022-10-14T00:29:28.050Z,23.30
2022-10-14T00:30:30.069Z,24.20
2022-10-14T00:31:33.159Z,25.70
2022-10-14T00:32:35.057Z,20.90
2022-10-14T00:33:39.689Z,22.60
2022-10-14T00:34:41.528Z,23.00
2022-10-14T00:35:43.456Z,21.90
2022-10-14T00:36:45.336Z,21.00
2022-10-14T00:37:50.044Z,23.50
2022-10-14T00:38:53.492Z,21.80
2022-10-14T00:39:57.157Z,22.30
2022-10-14T00:40:59.870Z,22.50
2022-10-14T00:42:01.676Z,23.00
2022-10-14T00:43:03.548Z,23.40
2022-10-14T00:44:09.824Z,23.40
2022-10-14T00:45:14.691Z,23.40
2022-10-14T00:46:16.806Z,24.70
2022-10-14T00:47:19.400Z,24.50
2022-10-14T00:48:25.847Z,24.50
2022-10-14T00:49:38.476Z,25.20
2022-10-14T00:50:43.745Z,24.80
2022-10-14T00:51:51.065Z,24.30
2022-10-14T00:52:52.925Z,23.50
2022-10-14T00:53:55.419Z,24.40
2022-10-14T00:55:02.942Z,23.50
2022-10-14T00:56:05.326Z,22.60
2022-10-14T00:57:08.968Z,23.50
2022-10-14T00:58:11.663Z,23.60
2022-10-14T00:59:14.939Z,21.90
2022-10-14T01:00:20.425Z,22.90
2022-10-14T01:01:23.745Z,22.00
2022-10-14T01:02:25.609Z,22.20
2022-10-14T01:03:27.760Z,22.40
2022-10-14T01:04:33.208Z,22.10
2022-10-14T01:05:42.986Z,21.70
2022-10-14T01:06:54.154Z,21.60
2022-10-14T01:08:08.811Z,21.00
2022-10-14T01:09:31.335Z,23.00
2022-10-14T01:10:42.161Z,23.00
2022-10-14T01:12:27.585Z,24.40
2022-10-14T01:13:35.199Z,24.60
2022-10-14T01:14:58.872Z,25.20
2022-10-14T01:16:24.229Z,23.10
2022-10-14T01:17:41.158Z,22.20
2022-10-14T01:19:08.350Z,22.80
2022-10-14T01:20:49.604Z,21.40
2022-10-14T01:21:59.545Z,20.40
2022-10-14T01:23:12.824Z,21.10
2022-10-14T01:24:36.429Z,20.20
2022-10-14T01:26:26.809Z,20.30
2022-10-14T01:27:43.755Z,19.70
2022-10-14T01:29:24.210Z,21.10
2022-10-14T01:30:31.276Z,18.70
2022-10-14T01:31:35.956Z,20.30
2022-10-14T01:32:45.636Z,21.60
2022-10-14T01:33:52.699Z,21.50
2022-10-14T01:35:43.639Z,22.00
2022-10-14T01:36:52.331Z,21.80
2022-10-14T01:37:59.410Z,22.10
2022-10-14T01:39:19.877Z,21.80
2022-10-14T01:40:31.614Z,22.10
2022-10-14T01:41:38.797Z,21.40
2022-10-14T01:42:43.820Z,22.80
2022-10-14T01:43:51.523Z,22.60
2022-10-14T01:45:00.751Z,23.40
2022-10-14T01:46:05.786Z,24.00
2022-10-14T01:47:09.282Z,24.90
2022-10-14T01:48:14.071Z,26.20
2022-10-14T01:49:26.675Z,24.40
2022-10-14T01:50:31.139Z,22.60
2022-10-14T01:51:41.800Z,23.40
2022-10-14T01:52:50.361Z,23.40
2022-10-14T01:53:58.450Z,23.20
2022-10-14T01:55:09.863Z,22.50
2022-10-14T01:56:14.772Z,23.00
2022-10-14T01:57:21.691Z,21.30
2022-10-14T01:58:28.039Z,21.70
2022-10-14T01:59:32.101Z,22.60
2022-10-14T02:00:34.450Z,22.40
2022-10-14T02:01:36.701Z,23.80
2022-10-14T02:02:40.226Z,25.00
2022-10-14T02:03:45.711Z,23.20
2022-10-14T02:04:47.511Z,24.30
2022-10-14T02:05:57.977Z,26.30
2022-10-14T02:07:04.418Z,24.10
2022-10-14T02:08:45.235Z,25.00
2022-10-14T02:09:47.309Z,21.90
2022-10-14T02:11:01.724Z,23.30
2022-10-14T02:12:27.343Z,23.60
2022-10-14T02:14:11.038Z,20.80
2022-10-14T02:15:25.111Z,19.60
2022-10-14T02:16:51.729Z,22.00
2022-10-14T02:18:05.723Z,21.40
2022-10-14T02:19:22.923Z,21.60
2022-10-14T02:20:31.384Z,23.20
2022-10-14T02:21:42.370Z,23.40
2022-10-14T02:23:54.017Z,20.80
2022-10-14T02:25:07.133Z,22.30
2022-10-14T02:26:11.124Z,22.70
2022-10-14T02:27:16.853Z,22.20
2022-10-14T02:28:23.004Z,22.00
2022-10-14T02:29:31.151Z,22.30
2022-10-14T02:30:37.625Z,21.40
2022-10-14T02:31:43.148Z,22.10
2022-10-14T02:32:47.923Z,21.50
2022-10-14T02:33:54.725Z,21.20
2022-10-14T02:34:58.483Z,21.50
2022-10-14T02:36:03.276Z,21.00
2022-10-14T02:37:06.953Z,21.40
2022-10-14T02:38:09.836Z,20.70
2022-10-14T02:39:16.561Z,20.90
2022-10-14T02:40:27.014Z,20.60
2022-10-14T02:41:34.874Z,19.70
2022-10-14T02:42:36.872Z,19.70
2022-10-14T02:43:39.343Z,20.10
2022-10-14T02:44:56.118Z,19.90
2022-10-14T02:46:00.194Z,19.70
2022-10-14T02:47:02.399Z,19.60
2022-10-14T02:48:05.725Z,20.90
2022-10-14T02:49:08.249Z,20.30
2022-10-14T02:50:11.791Z,20.40
2022-10-14T02:51:13.551Z,20.50
2022-10-14T02:52:15.315Z,20.70
2022-10-14T02:53:17.591Z,21.30
2022-10-14T02:54:20.399Z,21.50
2022-10-14T02:55:23.751Z,21.90
2022-10-14T02:56:25.923Z,21.40
2022-10-14T02:57:27.735Z,21.90
2022-10-14T02:58:30.652Z,23.30
2022-10-14T02:59:32.433Z,21.50
2022-10-14T03:00:35.206Z,23.60
2022-10-14T03:01:37.903Z,23.50
2022-10-14T03:02:42.834Z,22.40
2022-10-14T03:03:45.054Z,23.10
2022-10-14T03:04:47.660Z,23.50
2022-10-14T03:05:49.567Z,23.80
2022-10-14T03:06:51.534Z,23.90
2022-10-14T03:07:55.853Z,23.50
2022-10-14T03:08:57.925Z,23.10
2022-10-14T03:10:04.306Z,23.10
2022-10-14T03:11:08.471Z,23.00
2022-10-14T03:12:10.433Z,22.10
2022-10-14T03:13:13.805Z,22.70
2022-10-14T03:14:17.876Z,21.30
2022-10-14T03:15:20.435Z,23.60
2022-10-14T03:16:22.310Z,22.00
2022-10-14T03:17:24.559Z,24.00
2022-10-14T03:18:26.588Z,24.70
2022-10-14T03:19:32.299Z,23.40
2022-10-14T03:20:34.469Z,24.30
2022-10-14T03:21:36.409Z,24.00
2022-10-14T03:22:38.597Z,23.70
2022-10-14T03:23:40.904Z,23.60
2022-10-14T03:24:42.769Z,24.10
2022-10-14T03:26:03.347Z,24.90
2022-10-14T03:27:12.584Z,21.80
2022-10-14T03:28:15.757Z,22.90
2022-10-14T03:29:25.724Z,22.70
2022-10-14T03:30:35.071Z,21.30
2022-10-14T03:31:41.334Z,24.70
2022-10-14T03:32:56.782Z,24.60
2022-10-14T03:34:18.596Z,23.60
2022-10-14T03:35:23.160Z,24.70
2022-10-14T03:36:25.846Z,25.80
2022-10-14T03:37:28.890Z,24.60
2022-10-14T03:38:31.114Z,25.00
2022-10-14T03:39:33.841Z,24.60
2022-10-14T03:40:39.388Z,26.40
2022-10-14T03:41:43.396Z,26.90
2022-10-14T03:42:46.530Z,25.60
2022-10-14T03:43:51.368Z,27.80
2022-10-14T03:44:53.567Z,27.90
2022-10-14T03:45:58.367Z,24.90
2022-10-14T03:47:00.316Z,25.00
2022-10-14T03:48:04.369Z,26.30
2022-10-14T03:49:06.167Z,25.50
2022-10-14T03:50:20.689Z,25.60
2022-10-14T03:51:25.452Z,24.40
2022-10-14T03:52:34.122Z,25.90
2022-10-14T03:53:41.524Z,24.80
2022-10-14T03:54:43.414Z,23.40
2022-10-14T03:55:46.318Z,25.50
2022-10-14T03:56:48.396Z,24.40
2022-10-14T03:57:51.185Z,26.10
2022-10-14T03:58:53.335Z,24.30
2022-10-14T03:59:58.084Z,23.40
2022-10-14T04:01:17.359Z,21.10
2022-10-14T04:02:58.909Z,21.30
2022-10-14T04:04:08.606Z,21.20
2022-10-14T04:05:11.134Z,18.50
2022-10-14T04:06:14.137Z,20.60
2022-10-14T04:07:16.997Z,20.10
2022-10-14T04:08:23.750Z,20.10
2022-10-14T04:09:33.694Z,19.20
2022-10-14T04:10:35.690Z,21.10
2022-10-14T04:11:37.865Z,21.10
2022-10-14T04:12:44.264Z,18.70
2022-10-14T04:13:59.643Z,19.40
2022-10-14T04:15:01.801Z,19.60
2022-10-14T04:16:09.137Z,20.10
2022-10-14T04:17:37.127Z,19.80
2022-10-14T04:18:42.698Z,21.30
2022-10-14T04:19:45.091Z,20.70
2022-10-14T04:20:48.514Z,23.20
2022-10-14T04:21:50.751Z,22.00
2022-10-14T04:22:54.535Z,20.60
2022-10-14T04:23:56.750Z,20.70
2022-10-14T04:25:09.872Z,20.50
2022-10-14T04:26:12.086Z,20.40
2022-10-14T04:27:14.055Z,20.50
2022-10-14T04:28:26.254Z,20.60
2022-10-14T04:29:37.368Z,18.80
2022-10-14T04:30:44.139Z,19.80
2022-10-14T04:31:50.658Z,20.80
2022-10-14T04:32:52.681Z,20.40
2022-10-14T04:33:54.530Z,19.70
2022-10-14T04:35:00.690Z,20.60
2022-10-14T04:36:06.030Z,19.40
2022-10-14T04:37:10.871Z,19.60
2022-10-14T04:38:24.822Z,20.40
2022-10-14T04:39:31.090Z,18.90
2022-10-14T04:40:32.969Z,19.90
2022-10-14T04:41:34.731Z,20.60
2022-10-14T04:42:36.685Z,20.40
2022-10-14T04:43:39.999Z,20.00
2022-10-14T04:45:01.509Z,20.10
2022-10-14T04:46:14.114Z,20.20
2022-10-14T04:47:18.929Z,20.20
2022-10-14T04:48:22.910Z,20.50
2022-10-14T04:49:27.595Z,20.10
2022-10-14T04:50:51.486Z,19.00
2022-10-14T04:52:12.437Z,18.90
2022-10-14T04:53:27.548Z,19.20
2022-10-14T04:54:39.303Z,20.00
2022-10-14T04:55:41.034Z,18.90
2022-10-14T04:56:43.019Z,19.30
2022-10-14T04:57:45.231Z,19.00
2022-10-14T04:58:49.313Z,19.10
2022-10-14T04:59:51.949Z,19.30
2022-10-14T05:00:57.992Z,20.30
2022-10-14T05:02:05.291Z,18.60
2022-10-14T05:03:14.301Z,19.20
2022-10-14T05:04:17.374Z,19.40
2022-10-14T05:05:19.687Z,19.50
2022-10-14T05:06:24.699Z,20.20
2022-10-14T05:07:26.854Z,19.40
2022-10-14T05:08:31.626Z,18.80
2022-10-14T05:09:34.930Z,18.30
2022-10-14T05:10:37.244Z,19.00
2022-10-14T05:11:43.405Z,18.90
2022-10-14T05:12:48.702Z,18.50
2022-10-14T05:13:53.374Z,17.70
2022-10-14T05:14:55.779Z,18.00
2022-10-14T05:16:03.704Z,18.40
2022-10-14T05:17:06.185Z,17.80
2022-10-14T05:18:11.254Z,18.00
2022-10-14T05:19:34.640Z,18.80
2022-10-14T05:20:38.121Z,17.60
2022-10-14T05:21:40.479Z,18.70
2022-10-14T05:22:47.866Z,18.00
2022-10-14T05:23:49.820Z,18.10
2022-10-14T05:24:52.039Z,18.80
2022-10-14T05:25:53.911Z,18.60
2022-10-14T05:26:56.481Z,17.70
2022-10-14T05:27:58.349Z,18.10
2022-10-14T05:29:01.729Z,18.40
2022-10-14T05:30:04.360Z,18.50
2022-10-14T05:31:07.654Z,18.30
2022-10-14T05:32:14.880Z,17.80
2022-10-14T05:33:20.984Z,17.20
2022-10-14T05:34:23.124Z,17.60
2022-10-14T05:35:53.670Z,17.30
2022-10-14T05:36:47.985Z,16.40
2022-10-14T05:37:59.552Z,16.40
2022-10-14T05:39:08.743Z,16.00
2022-10-14T05:40:11.983Z,16.60
2022-10-14T05:41:13.778Z,16.70
2022-10-14T05:42:15.950Z,17.10
2022-10-14T05:43:17.962Z,16.10
2022-10-14T05:44:19.988Z,16.90
2022-10-14T05:45:26.241Z,17.30
2022-10-14T05:46:28.362Z,17.20
2022-10-14T05:47:30.211Z,16.70
2022-10-14T05:48:34.770Z,18.40
2022-10-14T05:49:36.650Z,19.10
2022-10-14T05:50:39.140Z,17.70
2022-10-14T05:51:46.189Z,18.90
2022-10-14T05:52:52.391Z,17.90
2022-10-14T05:53:59.449Z,19.00
2022-10-14T05:55:02.286Z,18.80
2022-10-14T05:56:06.249Z,20.30
2022-10-14T05:57:09.055Z,20.30
2022-10-14T05:58:10.859Z,18.90
2022-10-14T05:59:15.237Z,20.10
2022-10-14T06:00:23.300Z,19.60
2022-10-14T06:01:28.134Z,19.50
2022-10-14T06:02:30.741Z,19.70
2022-10-14T06:03:32.869Z,19.30
2022-10-14T06:04:35.084Z,19.40
2022-10-14T06:05:38.362Z,18.90
2022-10-14T06:06:43.265Z,18.70
2022-10-14T06:07:45.159Z,19.30
2022-10-14T06:08:47.290Z,19.40
2022-10-14T06:09:49.454Z,19.90
2022-10-14T06:10:52.444Z,19.00
2022-10-14T06:11:54.757Z,18.70
2022-10-14T06:13:00.502Z,19.90
2022-10-14T06:14:02.483Z,19.30
2022-10-14T06:15:04.885Z,21.10
2022-10-14T06:16:08.643Z,21.00
2022-10-14T06:17:10.602Z,21.10
2022-10-14T06:18:12.799Z,21.60
2022-10-14T06:19:14.695Z,20.90
2022-10-14T06:20:16.671Z,19.80
2022-10-14T06:21:18.814Z,18.20
2022-10-14T06:22:21.040Z,18.60
2022-10-14T06:23:23.119Z,18.90
2022-10-14T06:24:25.104Z,19.90
2022-10-14T06:25:27.564Z,20.10
2022-10-14T06:26:29.319Z,19.30
2022-10-14T06:27:31.474Z,17.30
2022-10-14T06:28:33.635Z,18.30
2022-10-14T06:29:37.450Z,17.40
2022-10-14T06:30:39.191Z,16.50
2022-10-14T06:31:41.479Z,12.40
2022-10-14T06:32:43.839Z,13.00
2022-10-14T06:33:45.691Z,12.70
2022-10-14T06:34:47.547Z,12.90
2022-10-14T06:35:49.277Z,12.50
2022-10-14T06:36:51.084Z,10.30
2022-10-14T06:37:53.195Z,9.50
2022-10-14T06:38:54.940Z,10.30
2022-10-14T06:39:56.755Z,9.30
2022-10-14T06:40:58.576Z,8.40
2022-10-14T06:42:02.276Z,8.50
2022-10-14T06:43:07.569Z,8.10
2022-10-14T06:44:09.495Z,7.80
2022-10-14T06:45:11.796Z,7.50
2022-10-14T06:46:13.752Z,7.80
2022-10-14T06:47:16.034Z,8.60
2022-10-14T06:48:18.047Z,8.00
2022-10-14T06:49:19.887Z,8.20
2022-10-14T06:50:21.916Z,8.00
2022-10-14T06:51:23.673Z,8.20
2022-10-14T06:52:25.519Z,8.60
2022-10-14T06:53:28.627Z,9.00
2022-10-14T06:54:30.395Z,8.20
2022-10-14T06:55:32.508Z,8.70
2022-10-14T06:56:34.560Z,8.60
2022-10-14T06:57:36.516Z,8.80
2022-10-14T06:58:38.437Z,9.20
2022-10-14T06:59:41.328Z,10.20
2022-10-14T07:00:47.193Z,11.10
2022-10-14T07:01:50.041Z,11.10
2022-10-14T07:02:51.897Z,11.80
2022-10-14T07:03:55.930Z,13.30
2022-10-14T07:04:58.968Z,11.80
2022-10-14T07:06:03.110Z,12.70
2022-10-14T07:07:06.735Z,12.10
2022-10-14T07:08:11.383Z,13.30
2022-10-14T07:09:17.801Z,13.40
2022-10-14T07:10:19.994Z,13.90
2022-10-14T07:11:21.902Z,14.10
2022-10-14T07:12:24.775Z,14.00
2022-10-14T07:13:26.794Z,14.00
2022-10-14T07:14:31.279Z,13.60
2022-10-14T07:15:35.432Z,14.40
2022-10-14T07:16:38.465Z,13.70
2022-10-14T07:17:40.264Z,14.70
2022-10-14T07:18:42.124Z,14.20
2022-10-14T07:19:43.896Z,14.20
2022-10-14T07:20:46.275Z,14.70
2022-10-14T07:21:48.065Z,15.00
2022-10-14T07:22:54.011Z,14.00
2022-10-14T07:23:55.874Z,14.20
2022-10-14T07:24:57.585Z,14.30
2022-10-14T07:26:00.296Z,14.20
2022-10-14T07:28:06.154Z,14.80
2022-10-14T07:29:08.607Z,15.50
2022-10-14T07:30:13.823Z,15.80
2022-10-14T07:31:19.653Z,15.00
2022-10-14T07:32:24.630Z,13.70
2022-10-14T07:33:26.845Z,14.50
2022-10-14T07:34:28.975Z,14.20
2022-10-14T07:35:30.974Z,15.20
2022-10-14T07:36:32.805Z,13.00
2022-10-14T07:37:34.589Z,13.90
2022-10-14T07:38:37.029Z,14.30
2022-10-14T07:39:38.854Z,15.00
2022-10-14T07:40:40.934Z,14.70
2022-10-14T07:41:42.760Z,12.90
2022-10-14T07:42:44.575Z,13.70
2022-10-14T07:43:54.965Z,14.40
2022-10-14T07:44:57.750Z,13.60
2022-10-14T07:46:05.034Z,12.90
2022-10-14T07:47:07.094Z,13.10
2022-10-14T07:48:09.024Z,13.40
2022-10-14T07:49:20.589Z,13.80
2022-10-14T07:50:22.602Z,13.00
2022-10-14T07:51:25.235Z,11.40
2022-10-14T07:52:27.859Z,13.30
2022-10-14T07:53:29.661Z,12.30
2022-10-14T07:54:32.660Z,11.80
2022-10-14T07:55:34.498Z,11.40
2022-10-14T07:56:38.424Z,12.40
2022-10-14T07:57:40.099Z,11.10
2022-10-14T07:58:44.468Z,11.50
2022-10-14T07:59:46.892Z,12.30
2022-10-14T08:00:49.946Z,11.10
2022-10-14T08:01:53.264Z,11.60
2022-10-14T08:02:55.166Z,10.90
2022-10-14T08:03:57.089Z,11.90
2022-10-14T08:05:25.442Z,10.10
2022-10-14T08:06:23.705Z,10.70
2022-10-14T08:07:26.451Z,10.30
2022-10-14T08:08:28.454Z,10.50
2022-10-14T08:09:30.836Z,10.30
2022-10-14T08:10:33.454Z,10.10
2022-10-14T08:11:35.433Z,10.90
2022-10-14T08:12:37.330Z,11.50
2022-10-14T08:13:43.380Z,11.80
2022-10-14T08:14:47.815Z,11.40
2022-10-14T08:15:49.669Z,11.40
2022-10-14T08:16:51.533Z,11.90
2022-10-14T08:17:54.153Z,10.40
2022-10-14T08:18:58.431Z,10.70
2022-10-14T08:20:00.214Z,11.30
2022-10-14T08:21:02.051Z,10.50
2022-10-14T08:22:05.689Z,10.80
2022-10-14T08:23:07.738Z,10.60
2022-10-14T08:24:10.194Z,11.50
2022-10-14T08:25:12.242Z,10.40
2022-10-14T08:26:30.903Z,10.50
2022-10-14T08:27:32.777Z,10.70
2022-10-14T08:28:34.631Z,10.40
2022-10-14T08:29:36.376Z,10.60
2022-10-14T08:30:38.492Z,10.00
2022-10-14T08:31:40.838Z,10.60
2022-10-14T08:32:42.626Z,10.00
2022-10-14T08:33:44.340Z,10.40
2022-10-14T08:34:46.280Z,10.10
2022-10-14T08:35:53.715Z,10.00
2022-10-14T08:36:56.011Z,9.50
2022-10-14T08:38:01.739Z,10.10
2022-10-14T08:39:04.964Z,9.40
2022-10-14T08:40:08.133Z,9.30
2022-10-14T08:41:12.637Z,9.50
2022-10-14T08:42:30.535Z,7.90
2022-10-14T08:43:39.081Z,7.50
2022-10-14T08:44:56.241Z,7.30
2022-10-14T08:46:10.899Z,7.40
2022-10-14T08:47:16.193Z,5.70
2022-10-14T08:48:23.288Z,6.30
2022-10-14T08:49:58.194Z,6.10
2022-10-14T08:51:11.157Z,5.60
2022-10-14T08:52:19.391Z,5.70
2022-10-14T08:53:30.170Z,5.00
2022-10-14T08:54:37.785Z,4.80
2022-10-14T08:55:43.754Z,5.10
2022-10-14T08:56:45.519Z,4.80
2022-10-14T08:58:21.425Z,4.40
2022-10-14T08:59:26.103Z,4.50
2022-10-14T09:00:30.676Z,5.10
2022-10-14T09:01:35.481Z,4.50
2022-10-14T09:02:46.561Z,4.50
2022-10-14T09:03:50.045Z,4.90
2022-10-14T09:04:51.873Z,4.50
2022-10-14T09:05:59.240Z,3.70
2022-10-14T09:07:02.401Z,3.50
2022-10-14T09:08:07.861Z,4.00
2022-10-14T09:09:27.915Z,3.40
2022-10-14T09:10:39.667Z,3.00
2022-10-14T09:11:44.787Z,3.40
2022-10-14T09:12:46.679Z,3.30
2022-10-14T09:13:52.507Z,3.50
2022-10-14T09:15:02.648Z,3.50
2022-10-14T09:16:23.637Z,3.30
2022-10-14T09:17:34.058Z,3.50
2022-10-14T09:18:44.413Z,3.10
2022-10-14T09:20:02.254Z,3.30
2022-10-14T09:21:53.126Z,3.70
2022-10-14T09:22:57.992Z,3.40
2022-10-14T09:24:16.179Z,3.20
2022-10-14T09:25:18.033Z,3.40
2022-10-14T09:26:19.902Z,3.10
2022-10-14T09:27:22.790Z,3.20
2022-10-14T09:28:36.194Z,3.50
2022-10-14T09:30:02.578Z,3.10
2022-10-14T09:31:10.024Z,3.00
2022-10-14T09:32:32.050Z,2.90
2022-10-14T09:33:42.077Z,3.00
2022-10-14T09:34:50.281Z,3.00
2022-10-14T09:35:52.616Z,3.20
2022-10-14T09:36:55.618Z,3.40
2022-10-14T09:37:57.959Z,3.30
2022-10-14T09:39:03.750Z,3.20
2022-10-14T09:40:08.207Z,3.20
2022-10-14T09:41:15.579Z,3.60
2022-10-14T09:42:22.606Z,3.20
2022-10-14T09:43:24.882Z,3.20
2022-10-14T09:44:28.094Z,3.20
2022-10-14T09:45:55.444Z,3.40
2022-10-14T09:47:01.672Z,3.00
2022-10-14T09:48:14.010Z,3.60
2022-10-14T09:49:32.548Z,3.20
2022-10-14T09:50:46.639Z,3.30
2022-10-14T09:51:49.595Z,3.20
2022-10-14T09:53:00.948Z,2.70
2022-10-14T09:54:04.546Z,3.10
2022-10-14T09:55:18.654Z,3.30
2022-10-14T09:56:48.944Z,2.60
2022-10-14T09:58:18.389Z,3.10
2022-10-14T09:59:21.938Z,3.00
2022-10-14T10:00:27.908Z,3.50
2022-10-14T10:01:40.639Z,3.40
2022-10-14T10:02:46.392Z,3.30
2022-10-14T10:03:51.198Z,3.50
2022-10-14T10:04:57.500Z,3.60
2022-10-14T10:06:03.273Z,3.70
2022-10-14T10:07:07.249Z,3.70
2022-10-14T10:08:18.643Z,3.30
2022-10-14T10:09:21.379Z,3.30
2022-10-14T10:10:24.185Z,3.20
2022-10-14T10:11:40.002Z,4.00
2022-10-14T10:12:46.678Z,3.90
2022-10-14T10:13:49.003Z,3.70
2022-10-14T10:15:05.311Z,3.60
2022-10-14T10:16:18.760Z,3.70
2022-10-14T10:17:21.893Z,4.10
2022-10-14T10:18:23.985Z,4.20
2022-10-14T10:19:33.950Z,4.00
2022-10-14T10:20:36.117Z,3.70
2022-10-14T10:21:38.001Z,3.70
2022-10-14T10:22:41.359Z,4.00
2022-10-14T10:24:00.720Z,3.90
2022-10-14T10:25:05.445Z,3.20
2022-10-14T10:26:36.624Z,3.40
2022-10-14T10:28:46.029Z,3.70
2022-10-14T10:29:47.774Z,4.50
2022-10-14T10:31:20.178Z,3.50
2022-10-14T10:32:59.453Z,3.20
2022-10-14T10:34:37.695Z,3.90
2022-10-14T10:35:47.380Z,4.20
2022-10-14T10:36:59.731Z,3.50
2022-10-14T10:38:23.890Z,3.60
2022-10-14T10:39:28.626Z,3.90
2022-10-14T10:40:40.963Z,3.90
2022-10-14T10:41:58.024Z,3.80
2022-10-14T10:43:20.933Z,3.60
2022-10-14T10:45:03.762Z,2.60
2022-10-14T10:46:31.469Z,2.50
2022-10-14T10:47:45.357Z,2.40
2022-10-14T10:48:53.798Z,2.20
2022-10-14T10:50:14.660Z,2.20
2022-10-14T10:51:33.963Z,2.00
2022-10-14T10:52:41.820Z,2.20
2022-10-14T10:54:18.921Z,2.30
2022-10-14T10:57:01.649Z,2.30
2022-10-14T10:58:19.126Z,2.30
2022-10-14T10:59:39.646Z,2.20
2022-10-14T11:00:54.319Z,2.40
2022-10-14T11:02:21.393Z,2.40
2022-10-14T11:03:24.093Z,2.30
2022-10-14T11:04:34.397Z,2.40
2022-10-14T11:05:49.506Z,2.40
2022-10-14T11:07:27.024Z,2.60
2022-10-14T11:09:04.490Z,2.60
2022-10-14T11:10:28.199Z,2.60
2022-10-14T11:11:54.808Z,2.80
2022-10-14T11:12:59.753Z,2.80
2022-10-14T11:14:29.647Z,2.90
2022-10-14T11:15:37.428Z,2.90
2022-10-14T11:17:03.738Z,2.60
2022-10-14T11:18:29.393Z,2.80
2022-10-14T11:19:58.506Z,3.40
2022-10-14T11:21:15.518Z,2.90
2022-10-14T11:22:38.270Z,3.20
2022-10-14T11:24:01.879Z,3.50
2022-10-14T11:25:30.596Z,3.00
2022-10-14T11:26:46.588Z,2.50
2022-10-14T11:28:00.494Z,2.40
2022-10-14T11:29:02.721Z,2.20
2022-10-14T11:30:13.182Z,2.40
2022-10-14T11:31:29.340Z,2.00
2022-10-14T11:32:58.939Z,2.10
2022-10-14T11:34:38.610Z,2.10
2022-10-14T11:35:55.976Z,2.10
2022-10-14T11:37:11.001Z,1.90
2022-10-14T11:38:24.412Z,2.30
2022-10-14T11:39:54.836Z,2.20
2022-10-14T11:41:00.783Z,1.90
2022-10-14T11:42:13.224Z,2.00
2022-10-14T11:43:40.582Z,2.00
2022-10-14T11:44:43.491Z,1.90
2022-10-14T11:45:54.831Z,2.00
2022-10-14T11:47:02.623Z,1.80
2022-10-14T11:48:33.354Z,2.10
2022-10-14T11:49:45.764Z,2.00
2022-10-14T11:50:52.959Z,2.30
2022-10-14T11:52:03.076Z,2.30
2022-10-14T11:53:19.057Z,2.20
2022-10-14T11:54:35.015Z,2.40
2022-10-14T11:55:43.805Z,2.60
2022-10-14T11:56:57.527Z,2.70
2022-10-14T11:58:06.189Z,2.50
2022-10-14T11:59:45.384Z,2.70
2022-10-14T12:00:52.658Z,2.80
2022-10-14T12:02:02.149Z,2.60
2022-10-14T12:03:19.107Z,2.70
2022-10-14T12:04:33.844Z,2.60
2022-10-14T12:05:35.946Z,2.70
2022-10-14T12:06:46.443Z,2.90
2022-10-14T12:08:14.275Z,3.00
2022-10-14T12:09:30.805Z,2.80
2022-10-14T12:10:37.635Z,2.70
2022-10-14T12:11:49.080Z,2.90
2022-10-14T12:12:51.198Z,2.90
2022-10-14T12:14:03.008Z,2.90
2022-10-14T12:15:13.450Z,2.90
2022-10-14T12:16:17.886Z,3.00
2022-10-14T12:17:57.633Z,2.90
2022-10-14T12:18:59.715Z,3.20
2022-10-14T12:20:40.289Z,3.40
2022-10-14T12:21:57.632Z,2.90
2022-10-14T12:23:01.786Z,3.30
2022-10-14T12:24:21.457Z,3.00
2022-10-14T12:25:25.439Z,3.30
2022-10-14T12:26:47.029Z,2.90
2022-10-14T12:27:53.037Z,3.30
2022-10-14T12:28:56.811Z,3.30
2022-10-14T12:30:02.338Z,3.10
2022-10-14T12:31:49.160Z,3.10
2022-10-14T12:33:02.640Z,2.90
2022-10-14T12:34:10.328Z,3.60
2022-10-14T12:35:50.275Z,3.50
2022-10-14T12:36:52.279Z,3.00
2022-10-14T12:38:03.113Z,3.20
2022-10-14T12:39:16.880Z,3.20
2022-10-14T12:40:25.856Z,3.50
2022-10-14T12:41:39.841Z,3.20
2022-10-14T12:42:47.879Z,3.20
2022-10-14T12:44:04.050Z,3.20
2022-10-14T12:45:49.273Z,3.50
2022-10-14T12:46:53.054Z,3.50
2022-10-14T12:48:14.992Z,3.00
2022-10-14T12:49:29.797Z,2.90
2022-10-14T12:50:38.566Z,3.20
2022-10-14T12:51:53.211Z,3.40
2022-10-14T12:53:00.219Z,2.60
2022-10-14T12:54:12.714Z,3.00
2022-10-14T12:55:27.367Z,3.10
2022-10-14T12:56:33.210Z,3.20
2022-10-14T12:57:40.021Z,2.90
2022-10-14T12:59:00.617Z,2.50
2022-10-14T13:00:21.617Z,2.70
2022-10-14T13:01:23.544Z,2.80
2022-10-14T13:02:34.563Z,3.10
2022-10-14T13:03:43.114Z,2.80
2022-10-14T13:04:50.688Z,3.20
2022-10-14T13:05:53.438Z,3.20
2022-10-14T13:07:46.569Z,2.90
2022-10-14T13:09:18.269Z,3.00
2022-10-14T13:10:43.251Z,3.00
2022-10-14T13:11:50.880Z,2.80
2022-10-14T13:12:52.982Z,2.80
2022-10-14T13:14:01.727Z,3.50
2022-10-14T13:15:35.909Z,2.80
2022-10-14T13:16:37.819Z,3.00
2022-10-14T13:17:46.651Z,3.10
2022-10-14T13:19:01.262Z,2.90
2022-10-14T13:20:04.344Z,2.60
2022-10-14T13:21:08.042Z,2.90
2022-10-14T13:22:31.431Z,2.70
2022-10-14T13:23:48.170Z,2.70
2022-10-14T13:24:51.284Z,3.10
2022-10-14T13:25:57.495Z,2.90
2022-10-14T13:27:13.980Z,2.70
2022-10-14T13:28:27.081Z,2.90
2022-10-14T13:29:37.147Z,2.90
2022-10-14T13:31:04.467Z,2.70
2022-10-14T13:32:09.316Z,2.70
2022-10-14T13:33:36.961Z,2.60
2022-10-14T13:34:54.129Z,2.90
2022-10-14T13:36:20.465Z,3.00
2022-10-14T13:37:52.751Z,2.80
2022-10-14T13:38:58.799Z,3.00
2022-10-14T13:40:21.918Z,3.30
2022-10-14T13:41:30.888Z,3.20
2022-10-14T13:42:36.214Z,3.00
2022-10-14T13:43:42.685Z,3.10
2022-10-14T13:44:44.751Z,2.70
2022-10-14T13:45:54.656Z,3.10
2022-10-14T13:47:00.012Z,2.70
2022-10-14T13:48:01.979Z,3.30
2022-10-14T13:49:06.575Z,3.20
2022-10-14T13:50:14.885Z,3.00
2022-10-14T13:51:24.430Z,3.20
2022-10-14T13:52:40.293Z,3.10
2022-10-14T13:53:53.215Z,2.90
2022-10-14T13:55:18.125Z,3.00
2022-10-14T13:56:23.274Z,2.90
2022-10-14T13:57:53.585Z,3.30
2022-10-14T13:58:47.855Z,3.20
2022-10-14T14:01:19.325Z,3.30
2022-10-14T14:02:25.355Z,3.30
2022-10-14T14:03:41.302Z,3.50
2022-10-14T14:04:53.123Z,3.60
2022-10-14T14:05:56.503Z,3.80
2022-10-14T14:07:07.193Z,3.10
2022-10-14T14:08:40.445Z,3.20
2022-10-14T14:09:58.492Z,3.00
2022-10-14T14:11:18.029Z,3.40
2022-10-14T14:12:21.653Z,3.40
2022-10-14T14:13:24.765Z,3.30
2022-10-14T14:14:42.933Z,3.60
2022-10-14T14:15:50.371Z,3.30
2022-10-14T14:16:57.958Z,3.50
2022-10-14T14:17:59.743Z,2.90
2022-10-14T14:19:08.814Z,2.80
2022-10-14T14:20:19.965Z,2.90
2022-10-14T14:21:26.439Z,2.60
2022-10-14T14:22:31.395Z,2.80
2022-10-14T14:23:33.296Z,3.00
2022-10-14T14:24:35.176Z,3.20
2022-10-14T14:25:43.292Z,3.00
2022-10-14T14:26:59.941Z,2.60
2022-10-14T14:28:05.436Z,2.70
2022-10-14T14:29:16.913Z,2.80
2022-10-14T14:30:25.461Z,3.10
2022-10-14T14:31:33.623Z,2.90
2022-10-14T14:32:49.585Z,2.70
2022-10-14T14:33:57.201Z,2.80
2022-10-14T14:35:12.479Z,2.60
2022-10-14T14:36:27.757Z,2.50
2022-10-14T14:39:00.678Z,2.60
2022-10-14T14:40:15.921Z,2.70
2022-10-14T14:41:24.827Z,2.80
2022-10-14T14:42:39.096Z,3.10
2022-10-14T14:43:47.380Z,3.00
2022-10-14T14:45:00.685Z,2.90
2022-10-14T14:46:03.797Z,2.80
2022-10-14T14:47:06.080Z,2.70
2022-10-14T14:48:12.239Z,2.90
2022-10-14T14:49:24.708Z,2.70
2022-10-14T14:50:36.185Z,2.60
2022-10-14T14:51:40.137Z,2.70
2022-10-14T14:52:43.609Z,2.70
2022-10-14T14:53:51.810Z,2.60
2022-10-14T14:54:53.593Z,2.60
2022-10-14T14:55:55.296Z,2.70
2022-10-14T14:57:04.128Z,2.20
2022-10-14T14:58:20.739Z,4.10
2022-10-14T14:59:28.020Z,4.70
2022-10-14T15:00:30.190Z,4.50
2022-10-14T15:01:32.311Z,5.20
2022-10-14T15:02:34.646Z,5.40
2022-10-14T15:04:12.685Z,5.10